createdAt,value
2022-12-17T00:04:30.208Z,43.50
2022-12-17T00:09:50.695Z,43.47
2022-12-17T00:15:10.925Z,40.90
2022-12-17T00:20:31.712Z,41.30
2022-12-17T00:25:52.154Z,45.00
2022-12-17T00:31:12.398Z,39.78
2022-12-17T00:36:32.735Z,41.90
2022-12-17T00:41:53.127Z,34.85
2022-12-17T00:47:13.498Z,33.58
2022-12-17T00:52:33.755Z,28.77
2022-12-17T00:57:54.155Z,30.73
2022-12-17T01:03:27.630Z,29.35
2022-12-17T01:08:48.198Z,27.20
2022-12-17T01:14:08.359Z,29.02
2022-12-17T01:19:29.727Z,28.77
2022-12-17T01:24:49.975Z,30.02
2022-12-17T01:30:10.291Z,29.30
2022-12-17T01:35:30.659Z,31.45
2022-12-17T01:40:52.670Z,33.00
2022-12-17T01:46:13.065Z,33.05
2022-12-17T01:51:34.519Z,28.52
2022-12-17T01:56:57.856Z,27.08
2022-12-17T02:02:18.236Z,25.83
2022-12-17T02:07:47.770Z,25.63
2022-12-17T02:13:14.048Z,25.70
2022-12-17T02:18:43.463Z,26.52
2022-12-17T02:24:28.935Z,26.15
2022-12-17T02:29:56.591Z,24.60
2022-12-17T02:35:33.903Z,25.63
2022-12-17T02:40:56.996Z,23.45
2022-12-17T02:46:17.636Z,24.55
2022-12-17T02:51:39.292Z,24.67
2022-12-17T02:57:00.452Z,24.08
2022-12-17T03:02:20.979Z,24.90
2022-12-17T03:07:41.447Z,25.00
2022-12-17T03:13:02.158Z,24.58
2022-12-17T03:18:22.627Z,28.55
2022-12-17T03:23:43.231Z,28.67
2022-12-17T03:29:03.679Z,24.42
2022-12-17T03:34:24.172Z,24.75
2022-12-17T03:39:44.610Z,23.00
2022-12-17T03:45:05.094Z,23.92
2022-12-17T03:50:25.726Z,23.25
2022-12-17T03:55:46.259Z,22.90
2022-12-17T04:01:06.362Z,22.75
2022-12-17T04:06:26.665Z,21.25
2022-12-17T04:11:47.458Z,21.48
2022-12-17T04:17:07.816Z,22.30
2022-12-17T04:22:28.215Z,27.13
2022-12-17T04:28:08.624Z,28.67
2022-12-17T04:33:28.972Z,38.15
2022-12-17T04:38:49.404Z,29.73
2022-12-17T04:44:09.708Z,28.38
2022-12-17T04:49:30.176Z,28.67
2022-12-17T04:54:50.448Z,28.67
2022-12-17T05:00:10.697Z,28.25
2022-12-17T05:05:31.599Z,24.92
2022-12-17T05:10:51.775Z,26.92
2022-12-17T05:16:15.494Z,27.58
2022-12-17T05:21:35.654Z,28.02
2022-12-17T05:26:56.215Z,28.45
2022-12-17T05:32:18.022Z,26.15
2022-12-17T05:37:38.241Z,27.60
2022-12-17T05:42:58.327Z,27.23
2022-12-17T05:48:18.618Z,28.08
2022-12-17T05:53:39.386Z,30.70
2022-12-17T05:58:59.719Z,29.45
2022-12-17T06:04:20.043Z,27.25
2022-12-17T06:09:40.521Z,28.17
2022-12-17T06:15:00.811Z,27.08
2022-12-17T06:20:20.956Z,27.25
2022-12-17T06:25:41.491Z,27.75
2022-12-17T06:31:02.100Z,26.02
2022-12-17T06:36:23.059Z,24.35
2022-12-17T06:41:43.250Z,23.90
2022-12-17T06:47:03.580Z,24.27
2022-12-17T06:52:23.765Z,22.98
2022-12-17T06:57:48.783Z,23.92
2022-12-17T07:03:17.097Z,26.60
2022-12-17T07:08:37.335Z,29.27
2022-12-17T07:13:57.871Z,30.55
2022-12-17T07:19:20.472Z,58.00
2022-12-17T07:24:44.200Z,29.23
2022-12-17T07:30:04.619Z,26.70
2022-12-17T07:35:25.300Z,27.70
2022-12-17T07:40:53.264Z,26.00
2022-12-17T07:46:13.637Z,26.83
2022-12-17T07:51:33.911Z,32.45
2022-12-17T07:56:54.141Z,29.05
2022-12-17T08:02:14.775Z,26.17
2022-12-17T08:07:35.599Z,31.77
2022-12-17T08:12:55.744Z,31.08
2022-12-17T08:18:26.125Z,25.15
2022-12-17T08:23:47.287Z,26.02
2022-12-17T08:29:07.580Z,24.63
2022-12-17T08:34:28.023Z,25.63
2022-12-17T08:39:59.187Z,26.77
2022-12-17T08:45:19.783Z,31.60
2022-12-17T08:50:40.027Z,28.80
2022-12-17T08:56:00.516Z,25.13
2022-12-17T09:01:21.091Z,24.77
2022-12-17T09:06:41.405Z,25.50
2022-12-17T09:12:01.993Z,26.65
2022-12-17T09:17:22.643Z,25.92
2022-12-17T09:22:42.867Z,25.20
2022-12-17T09:28:03.114Z,27.65
2022-12-17T09:33:23.312Z,31.02
2022-12-17T09:38:43.659Z,33.38
2022-12-17T09:44:44.651Z,33.05
2022-12-17T09:50:05.532Z,34.95
2022-12-17T09:55:34.398Z,32.53
2022-12-17T10:01:00.610Z,31.42
2022-12-17T10:06:35.200Z,34.70
2022-12-17T10:11:55.389Z,33.72
2022-12-17T10:17:15.948Z,33.47
2022-12-17T10:22:39.504Z,35.03
2022-12-17T10:27:59.867Z,34.92
2022-12-17T10:33:25.754Z,32.45
2022-12-17T10:38:50.308Z,34.45
2022-12-17T10:44:10.735Z,33.38
2022-12-17T10:49:35.436Z,36.25
2022-12-17T10:54:55.638Z,34.13
2022-12-17T11:00:17.869Z,35.53
2022-12-17T11:05:48.825Z,35.90
2022-12-17T11:11:09.337Z,36.50
2022-12-17T11:16:40.267Z,35.83
2022-12-17T11:22:09.811Z,39.25
2022-12-17T11:27:38.088Z,34.78
2022-12-17T11:33:20.451Z,36.40
2022-12-17T11:38:53.014Z,35.10
2022-12-17T11:44:47.364Z,34.22
2022-12-17T11:50:31.684Z,27.30
2022-12-17T11:56:02.875Z,25.10
2022-12-17T12:01:37.326Z,26.42
2022-12-17T12:07:03.600Z,26.17
2022-12-17T12:12:29.769Z,26.73
2022-12-17T12:17:56.073Z,29.02
2022-12-17T12:23:34.659Z,27.88
2022-12-17T12:29:11.435Z,28.33
2022-12-17T12:34:46.140Z,28.00
2022-12-17T12:40:23.740Z,29.13
2022-12-17T12:46:09.458Z,29.37
2022-12-17T12:51:43.005Z,37.85
2022-12-17T12:57:03.428Z,28.23
2022-12-17T13:02:50.686Z,29.55
2022-12-17T13:08:07.315Z,30.40
2022-12-17T13:13:24.744Z,32.63
2022-12-17T13:18:40.353Z,33.53
2022-12-17T13:23:43.426Z,31.23
2022-12-17T13:28:59.016Z,33.58
2022-12-17T13:34:13.850Z,32.65
2022-12-17T13:39:34.047Z,32.90
2022-12-17T13:44:43.813Z,32.78
2022-12-17T13:50:24.560Z,32.88
2022-12-17T13:55:21.879Z,31.90
2022-12-17T14:00:25.315Z,33.85
2022-12-17T14:05:37.239Z,34.00
2022-12-17T14:10:52.050Z,34.40
2022-12-17T14:15:53.869Z,33.28
2022-12-17T14:20:55.892Z,36.15
2022-12-17T14:25:57.893Z,41.33
2022-12-17T14:31:26.626Z,42.17
2022-12-17T14:36:30.392Z,40.15
2022-12-17T14:41:56.267Z,40.00
2022-12-17T14:47:23.850Z,36.75
2022-12-17T14:52:40.647Z,32.92
2022-12-17T14:57:42.363Z,33.80
2022-12-17T15:02:47.016Z,32.47
2022-12-17T15:07:48.881Z,33.40
2022-12-17T15:12:52.932Z,33.38
2022-12-17T15:17:54.756Z,34.40
2022-12-17T15:22:56.495Z,33.17
2022-12-17T15:27:58.216Z,34.10
2022-12-17T15:32:59.968Z,34.35
2022-12-17T15:38:01.867Z,38.67
2022-12-17T15:43:12.975Z,34.60
2022-12-17T15:48:17.247Z,33.95
2022-12-17T15:53:18.976Z,34.13
2022-12-17T15:58:20.702Z,33.08
2022-12-17T16:03:23.076Z,33.00
2022-12-17T16:08:24.928Z,32.30
2022-12-17T16:13:26.628Z,30.58
2022-12-17T16:18:28.392Z,29.38
2022-12-17T16:23:30.168Z,27.52
2022-12-17T16:28:32.031Z,27.00
2022-12-17T16:33:39.444Z,27.70
2022-12-17T16:38:46.205Z,32.83
2022-12-17T16:43:48.544Z,29.88
2022-12-17T16:48:50.247Z,29.40
2022-12-17T16:53:52.068Z,25.23
2022-12-17T16:58:55.230Z,23.88
2022-12-17T17:03:57.648Z,22.92
2022-12-17T17:08:59.408Z,22.85
2022-12-17T17:14:01.351Z,27.38
2022-12-17T17:19:04.744Z,19.48
2022-12-17T17:24:16.745Z,18.65
2022-12-17T17:29:20.604Z,23.70
2022-12-17T17:34:22.725Z,19.50
2022-12-17T17:39:24.552Z,16.42
2022-12-17T17:44:26.294Z,13.30
2022-12-17T17:49:28.836Z,13.13
2022-12-17T17:54:31.137Z,12.60
2022-12-17T17:59:34.252Z,12.75
2022-12-17T18:04:36.503Z,15.95
2022-12-17T18:09:38.192Z,15.43
2022-12-17T18:14:46.816Z,15.77
2022-12-17T18:19:59.592Z,14.13
2022-12-17T18:25:01.323Z,12.85
2022-12-17T18:30:03.379Z,13.50
2022-12-17T18:35:05.821Z,12.80
2022-12-17T18:40:08.396Z,13.32
2022-12-17T18:45:13.292Z,11.57
2022-12-17T18:50:15.103Z,10.80
2022-12-17T18:55:17.056Z,9.65
2022-12-17T19:00:19.008Z,13.00
2022-12-17T19:05:20.787Z,16.10
2022-12-17T19:10:22.526Z,14.73
2022-12-17T19:15:24.268Z,18.40
2022-12-17T19:20:26.088Z,16.85
2022-12-17T19:25:27.876Z,20.75
2022-12-17T19:30:29.592Z,20.73
2022-12-17T19:35:31.293Z,23.33
2022-12-17T19:40:35.124Z,20.92
2022-12-17T19:45:36.867Z,23.55
2022-12-17T19:50:38.624Z,21.73
2022-12-17T19:55:40.425Z,21.95
2022-12-17T20:00:42.443Z,27.15
2022-12-17T20:05:46.235Z,28.00
2022-12-17T20:10:48.041Z,25.17
2022-12-17T20:16:02.333Z,25.65
2022-12-17T20:21:06.692Z,23.98
2022-12-17T20:26:10.824Z,23.33
2022-12-17T20:31:13.816Z,21.60
2022-12-17T20:36:20.596Z,19.10
2022-12-17T20:41:26.169Z,19.10
2022-12-17T20:46:28.059Z,17.30
2022-12-17T20:51:30.852Z,18.38
2022-12-17T20:56:34.764Z,16.45
2022-12-17T21:01:37.371Z,16.45
2022-12-17T21:06:44.871Z,16.95
2022-12-17T21:16:48.578Z,13.40
2022-12-17T21:21:50.500Z,15.15
2022-12-17T21:26:52.267Z,13.40
2022-12-17T21:31:54.003Z,15.07
2022-12-17T21:36:55.772Z,15.63
2022-12-17T21:42:15.939Z,14.45
2022-12-17T21:47:17.802Z,14.23
2022-12-17T21:52:19.661Z,13.02
2022-12-17T21:57:21.425Z,15.05
2022-12-17T22:02:23.289Z,13.88
2022-12-17T22:07:28.728Z,14.20
2022-12-17T22:12:56.461Z,13.25
2022-12-17T22:17:58.280Z,20.95
2022-12-17T22:23:02.453Z,15.95
2022-12-17T22:28:05.055Z,13.73
2022-12-17T22:33:14.276Z,12.13
2022-12-17T22:40:41.882Z,12.05
2022-12-17T22:44:36.378Z,11.30
2022-12-17T22:49:12.961Z,9.20
2022-12-17T22:54:15.075Z,8.68
2022-12-17T22:59:18.424Z,8.38
2022-12-17T23:04:20.298Z,7.70
2022-12-17T23:09:23.899Z,8.80
2022-12-17T23:14:25.596Z,8.88
2022-12-17T23:19:27.318Z,9.32
2022-12-17T23:24:29.680Z,10.00
2022-12-17T23:29:31.555Z,10.32
2022-12-17T23:34:33.348Z,6.80
2022-12-17T23:39:35.106Z,8.18
2022-12-17T23:44:36.864Z,7.82
2022-12-17T23:49:38.627Z,9.23
2022-12-17T23:54:40.363Z,10.90
2022-12-17T23:59:42.056Z,12.80
